Floral Park, New York
Current Conditions -  °F | °C
As of 4:51 AM on Monday 22 Dec 2014 (Local Time) from KJFK Reporting Station
Overcast Overcast  
Wind Chill: 33°   Ceiling: 900
Heat Index: 38°   Visibility: 10mi
Dew Point: 33°   Wind: 6mph
Humidity: 83%   Direction: 10°N
Pressure: 30.33"   Gusts: NA
Location:  40.72°N, 73.7°W
Report Text: KJFK 220951Z 01005KT 10SM OVC009 03/01 A3033 RMK AO2 SLP269 T00330006 $
Loading
Personal Weather Stations






























Interactive Weather Map New forecast layout! Learn more

10-Day Weather Forecast

Advertisements
Track Severe Weather on mobile